Time;durP1;ratioP1;P1;durP2;ratioP2;P2;SDS_P1;SDS_P2;PMS_P1;PMS_P2;Temp;Humidity;BMP_temperature;BMP_pressure;BME280_temperature;BME280_humidity;BME280_pressure;Samples;Min_cycle;Max_cycle;Signal;HPM_P1;HPM_P2
2022/04/11 00:00:40;;;;;;;7.50;6.60;;;;;;;;;;5041590;28;20403;-87
2022/04/11 00:03:06;;;;;;;8.83;6.77;;;;;;;;;;5041463;28;20450;-88
2022/04/11 00:05:32;;;;;;;10.53;5.93;;;;;;;;;;5043045;28;20410;-88
2022/04/11 00:07:58;;;;;;;8.47;5.40;;;;;;;;;;5052250;28;20445;-87
2022/04/11 00:10:24;;;;;;;8.00;7.13;;;;;;;;;;5045758;28;20406;-89
2022/04/11 00:12:50;;;;;;;8.57;6.77;;;;;;;;;;5044409;28;20550;-89
2022/04/11 00:15:16;;;;;;;12.23;6.93;;;;;;;;;;5044485;28;20433;-87
2022/04/11 00:17:42;;;;;;;7.83;6.73;;;;;;;;;;5043838;28;20429;-88
2022/04/11 00:20:08;;;;;;;14.83;7.17;;;;;;;;;;5043110;28;20830;-87
2022/04/11 00:22:37;;;;;;;11.50;6.83;;;;;;;;;;5043288;28;20794;-87
2022/04/11 00:25:04;;;;;;;8.90;6.80;;;;;;;;;;5042754;28;20417;-87
2022/04/11 00:27:30;;;;;;;8.10;6.23;;;;;;;;;;5025306;28;20464;-88
2022/04/11 00:29:56;;;;;;;7.87;5.47;;;;;;;;;;5041841;28;20409;-88
2022/04/11 00:32:22;;;;;;;7.03;6.00;;;;;;;;;;5024903;28;20791;-85
2022/04/11 00:34:48;;;;;;;7.20;5.17;;;;;;;;;;5022226;28;20790;-86
2022/04/11 00:37:14;;;;;;;7.67;5.27;;;;;;;;;;5040267;28;20961;-85
2022/04/11 00:39:40;;;;;;;7.67;6.10;;;;;;;;;;5040252;28;20457;-85
2022/04/11 00:42:16;;;;;;;6.23;5.33;;;;;;;;;;5047252;28;20497;-87
2022/04/11 00:44:42;;;;;;;12.43;5.97;;;;;;;;;;5054498;28;20395;-88
2022/04/11 00:47:08;;;;;;;7.50;5.53;;;;;;;;;;5052719;28;20430;-86
2022/04/11 00:49:34;;;;;;;7.83;6.33;;;;;;;;;;5048022;28;20410;-89
2022/04/11 00:52:00;;;;;;;7.97;6.13;;;;;;;;;;5046439;28;20414;-89
2022/04/11 00:54:28;;;;;;;8.43;6.13;;;;;;;;;;5045735;28;20398;-87
2022/04/11 00:56:55;;;;;;;8.40;6.73;;;;;;;;;;5028157;28;20453;-89
2022/04/11 00:59:21;;;;;;;8.60;5.83;;;;;;;;;;5055272;28;20399;-88
2022/04/11 01:01:48;;;;;;;9.33;6.70;;;;;;;;;;5059750;28;20434;-88
2022/04/11 01:04:23;;;;;;;8.13;6.63;;;;;;;;;;5055903;28;20422;-88
2022/04/11 01:06:52;;;;;;;6.93;5.37;;;;;;;;;;5049386;28;20555;-88
2022/04/11 01:09:18;;;;;;;8.90;6.30;;;;;;;;;;5055956;28;20399;-88
2022/04/11 01:11:44;;;;;;;8.13;6.63;;;;;;;;;;5054854;28;20413;-89
2022/04/11 01:14:10;;;;;;;10.60;6.47;;;;;;;;;;5022565;28;20406;-87
2022/04/11 01:16:36;;;;;;;11.20;6.87;;;;;;;;;;5038668;28;20430;-87
2022/04/11 01:19:03;;;;;;;7.53;5.93;;;;;;;;;;5040231;28;20490;-88
2022/04/11 01:21:31;;;;;;;10.50;6.30;;;;;;;;;;5025159;28;20525;-89
2022/04/11 01:23:57;;;;;;;7.43;6.57;;;;;;;;;;5043141;28;20418;-87
2022/04/11 01:26:23;;;;;;;6.60;5.90;;;;;;;;;;5043541;28;20522;-88
2022/04/11 01:28:49;;;;;;;7.70;6.57;;;;;;;;;;5051753;28;20429;-89
2022/04/11 01:31:16;;;;;;;11.07;7.10;;;;;;;;;;5039349;28;20509;-88
2022/04/11 01:33:42;;;;;;;9.77;5.83;;;;;;;;;;5064495;28;20505;-88
2022/04/11 01:36:08;;;;;;;20.50;6.20;;;;;;;;;;5066177;28;20925;-89
2022/04/11 01:38:34;;;;;;;7.33;5.70;;;;;;;;;;5066209;28;20422;-86
2022/04/11 01:41:00;;;;;;;10.20;6.27;;;;;;;;;;5065553;28;20410;-88
2022/04/11 01:43:27;;;;;;;8.93;6.03;;;;;;;;;;5065620;28;20441;-88
2022/04/11 01:45:53;;;;;;;10.03;6.10;;;;;;;;;;5065166;28;20406;-88
2022/04/11 01:48:19;;;;;;;7.30;6.37;;;;;;;;;;5060049;28;20457;-86
2022/04/11 01:50:45;;;;;;;10.03;5.93;;;;;;;;;;5064350;28;20420;-86
2022/04/11 01:53:13;;;;;;;7.63;6.17;;;;;;;;;;5045368;28;20492;-87
2022/04/11 01:55:39;;;;;;;9.10;5.60;;;;;;;;;;5063289;28;20402;-88
2022/04/11 01:58:06;;;;;;;9.30;6.17;;;;;;;;;;5064403;28;20433;-88
2022/04/11 02:00:32;;;;;;;5.77;5.17;;;;;;;;;;5046752;28;20420;-87
2022/04/11 02:02:59;;;;;;;9.00;6.13;;;;;;;;;;5064385;28;20512;-88
2022/04/11 02:05:25;;;;;;;6.83;5.30;;;;;;;;;;5065085;28;20409;-87
2022/04/11 02:07:51;;;;;;;8.20;6.40;;;;;;;;;;5064195;28;20432;-87
2022/04/11 02:10:17;;;;;;;9.67;5.43;;;;;;;;;;5046112;28;20417;-90
2022/04/11 02:12:43;;;;;;;9.33;5.53;;;;;;;;;;5064499;28;20497;-87
2022/04/11 02:15:10;;;;;;;8.03;5.93;;;;;;;;;;5065299;28;20398;-88
2022/04/11 02:17:36;;;;;;;7.50;5.70;;;;;;;;;;5046742;28;20468;-88
2022/04/11 02:20:03;;;;;;;7.97;6.13;;;;;;;;;;5064808;28;20440;-87
2022/04/11 02:22:30;;;;;;;5.90;5.10;;;;;;;;;;5065391;28;20512;-87
2022/04/11 02:24:56;;;;;;;6.40;5.50;;;;;;;;;;5064576;28;20398;-87
2022/04/11 02:27:22;;;;;;;9.20;5.20;;;;;;;;;;5064164;28;20421;-88
2022/04/11 02:29:48;;;;;;;7.10;5.60;;;;;;;;;;5070569;28;20465;-88
2022/04/11 02:32:14;;;;;;;6.10;5.43;;;;;;;;;;5071308;28;21027;-87
2022/04/11 02:34:40;;;;;;;9.20;5.67;;;;;;;;;;5069854;28;20455;-88
2022/04/11 02:37:06;;;;;;;6.60;4.90;;;;;;;;;;5067364;28;20433;-88
2022/04/11 02:39:32;;;;;;;6.83;5.30;;;;;;;;;;5066990;28;20413;-89
2022/04/11 02:41:58;;;;;;;6.13;5.33;;;;;;;;;;5066149;28;20542;-89
2022/04/11 02:44:24;;;;;;;6.83;4.80;;;;;;;;;;5065053;28;20420;-88
2022/04/11 02:46:50;;;;;;;7.30;4.83;;;;;;;;;;5064920;28;20426;-89
2022/04/11 02:49:16;;;;;;;5.30;4.80;;;;;;;;;;5064397;28;20412;-86
2022/04/11 02:51:42;;;;;;;6.50;4.93;;;;;;;;;;5065691;28;20409;-87
2022/04/11 02:54:08;;;;;;;6.00;4.60;;;;;;;;;;5064445;28;20413;-88
2022/04/11 02:56:34;;;;;;;9.30;5.67;;;;;;;;;;5064039;28;20440;-87
2022/04/11 02:59:00;;;;;;;5.67;4.47;;;;;;;;;;5067129;28;20421;-88
2022/04/11 03:01:26;;;;;;;5.40;4.40;;;;;;;;;;5046316;28;20770;-88
2022/04/11 03:03:53;;;;;;;6.30;4.47;;;;;;;;;;5073295;28;20414;-85
2022/04/11 03:06:19;;;;;;;5.17;4.67;;;;;;;;;;5061351;28;20410;-87
2022/04/11 03:08:45;;;;;;;7.43;5.13;;;;;;;;;;5063203;28;20418;-89
2022/04/11 03:11:11;;;;;;;8.43;4.67;;;;;;;;;;5064032;28;20409;-89
2022/04/11 03:13:37;;;;;;;5.83;4.43;;;;;;;;;;5063881;28;20724;-89
2022/04/11 03:16:03;;;;;;;6.20;3.80;;;;;;;;;;5063987;28;20421;-89
2022/04/11 03:18:29;;;;;;;5.40;4.50;;;;;;;;;;5064046;28;20825;-89
2022/04/11 03:20:55;;;;;;;5.20;4.10;;;;;;;;;;5064729;28;20455;-87
2022/04/11 03:23:21;;;;;;;8.30;4.03;;;;;;;;;;5063902;28;20503;-88
2022/04/11 03:25:47;;;;;;;4.77;4.27;;;;;;;;;;5063566;28;20420;-87
2022/04/11 03:28:13;;;;;;;10.03;5.50;;;;;;;;;;5063474;28;20433;-88
2022/04/11 03:30:39;;;;;;;4.33;3.60;;;;;;;;;;5045353;28;20937;-88
2022/04/11 03:33:05;;;;;;;4.13;3.73;;;;;;;;;;5063016;28;20406;-86
2022/04/11 03:35:31;;;;;;;7.43;3.60;;;;;;;;;;5063489;28;20426;-88
2022/04/11 03:37:57;;;;;;;5.93;4.20;;;;;;;;;;5063927;28;20429;-88
2022/04/11 03:40:23;;;;;;;9.63;4.53;;;;;;;;;;5069113;28;20398;-87
2022/04/11 03:42:49;;;;;;;4.40;3.40;;;;;;;;;;5076388;28;20441;-86
2022/04/11 03:45:15;;;;;;;3.83;3.43;;;;;;;;;;5061778;28;20409;-88
2022/04/11 03:47:41;;;;;;;7.00;4.13;;;;;;;;;;5048764;28;20433;-88
2022/04/11 03:50:08;;;;;;;6.90;4.60;;;;;;;;;;5068182;28;20451;-86
2022/04/11 03:52:34;;;;;;;7.60;4.37;;;;;;;;;;5067374;28;20405;-87
2022/04/11 03:55:00;;;;;;;6.17;4.73;;;;;;;;;;5068175;28;20448;-88
2022/04/11 03:57:26;;;;;;;7.30;4.20;;;;;;;;;;5067516;28;20494;-87
2022/04/11 03:59:52;;;;;;;4.70;4.07;;;;;;;;;;5067803;28;20414;-88
2022/04/11 04:02:18;;;;;;;5.23;4.60;;;;;;;;;;5068096;28;20445;-86
2022/04/11 04:04:44;;;;;;;5.27;4.50;;;;;;;;;;5049428;28;20416;-86
2022/04/11 04:07:12;;;;;;;4.40;3.60;;;;;;;;;;5067152;28;20429;-88
2022/04/11 04:09:38;;;;;;;5.83;3.90;;;;;;;;;;5067232;28;20402;-88
2022/04/11 04:12:05;;;;;;;7.17;4.27;;;;;;;;;;5067159;28;20481;-89
2022/04/11 04:14:31;;;;;;;7.73;3.70;;;;;;;;;;5067569;28;20409;-88
2022/04/11 04:16:57;;;;;;;2.93;2.63;;;;;;;;;;5049671;28;20484;-87
2022/04/11 04:19:23;;;;;;;6.43;3.47;;;;;;;;;;5065562;28;20416;-88
2022/04/11 04:21:49;;;;;;;10.53;4.53;;;;;;;;;;5064221;28;20437;-87
2022/04/11 04:24:15;;;;;;;6.33;4.27;;;;;;;;;;5046507;28;20410;-87
2022/04/11 04:26:41;;;;;;;7.30;3.80;;;;;;;;;;5065186;28;20433;-86
2022/04/11 04:29:07;;;;;;;8.30;5.10;;;;;;;;;;5065879;28;20429;-86
2022/04/11 04:31:34;;;;;;;8.57;4.50;;;;;;;;;;5064925;28;20409;-86
2022/04/11 04:34:00;;;;;;;7.43;4.60;;;;;;;;;;5059845;28;20481;-85
2022/04/11 04:36:26;;;;;;;8.27;4.27;;;;;;;;;;5060804;28;20462;-87
2022/04/11 04:38:52;;;;;;;5.50;4.03;;;;;;;;;;5065102;28;20424;-87
2022/04/11 04:41:18;;;;;;;4.77;3.70;;;;;;;;;;5079891;28;20432;-87
2022/04/11 04:43:44;;;;;;;6.50;4.07;;;;;;;;;;5080629;28;20437;-86
2022/04/11 04:46:10;;;;;;;4.67;4.00;;;;;;;;;;5077106;28;20418;-86
2022/04/11 04:48:36;;;;;;;5.83;4.60;;;;;;;;;;5078914;28;20443;-86
2022/04/11 04:51:02;;;;;;;8.60;3.57;;;;;;;;;;5073081;28;20409;-86
2022/04/11 04:53:29;;;;;;;7.70;3.70;;;;;;;;;;5067310;28;20402;-88
2022/04/11 04:55:55;;;;;;;4.07;3.60;;;;;;;;;;5063576;28;20413;-89
2022/04/11 04:58:21;;;;;;;6.07;4.07;;;;;;;;;;5084160;22;20856;-86
2022/04/11 05:00:47;;;;;;;8.40;4.80;;;;;;;;;;5064802;28;20414;-88
2022/04/11 05:03:13;;;;;;;9.97;6.27;;;;;;;;;;5063987;28;20544;-87
2022/04/11 05:05:39;;;;;;;10.50;4.23;;;;;;;;;;5064170;28;20402;-89
2022/04/11 05:08:05;;;;;;;6.47;3.80;;;;;;;;;;5064873;28;20432;-88
2022/04/11 05:10:31;;;;;;;10.37;5.10;;;;;;;;;;5064092;28;20414;-87
2022/04/11 05:12:57;;;;;;;5.43;3.87;;;;;;;;;;5045829;28;20917;-88
2022/04/11 05:15:23;;;;;;;7.90;4.57;;;;;;;;;;5065258;28;20405;-86
2022/04/11 05:17:49;;;;;;;7.90;4.20;;;;;;;;;;5065093;28;20425;-87
2022/04/11 05:20:16;;;;;;;8.50;3.77;;;;;;;;;;5072852;28;20440;-86
2022/04/11 05:22:42;;;;;;;10.60;4.93;;;;;;;;;;5071097;28;20544;-87
2022/04/11 05:25:08;;;;;;;16.33;6.30;;;;;;;;;;5064573;28;20421;-87
2022/04/11 05:27:34;;;;;;;15.00;6.63;;;;;;;;;;5045229;28;20422;-87
2022/04/11 05:30:00;;;;;;;8.00;5.20;;;;;;;;;;5062947;28;20397;-86
2022/04/11 05:32:26;;;;;;;5.63;4.10;;;;;;;;;;5060285;28;20401;-87
2022/04/11 05:34:52;;;;;;;7.87;3.80;;;;;;;;;;5060362;28;20441;-87
2022/04/11 05:37:18;;;;;;;7.43;3.97;;;;;;;;;;5042741;28;20463;-85
2022/04/11 05:39:44;;;;;;;5.20;3.53;;;;;;;;;;5060297;28;20409;-86
2022/04/11 05:42:11;;;;;;;7.50;3.60;;;;;;;;;;5059817;28;20449;-87
2022/04/11 05:44:37;;;;;;;6.47;3.73;;;;;;;;;;5073980;28;20416;-87
2022/04/11 05:47:03;;;;;;;6.10;3.70;;;;;;;;;;5069728;28;20937;-87
2022/04/11 05:49:29;;;;;;;9.83;4.50;;;;;;;;;;5060808;28;20778;-87
2022/04/11 05:51:55;;;;;;;7.43;3.43;;;;;;;;;;5061005;28;20947;-87
2022/04/11 05:54:21;;;;;;;6.90;3.80;;;;;;;;;;5060785;28;20401;-87
2022/04/11 05:56:47;;;;;;;5.93;3.90;;;;;;;;;;5061074;28;20539;-87
2022/04/11 05:59:13;;;;;;;3.50;3.20;;;;;;;;;;5042463;28;20890;-87
2022/04/11 06:01:40;;;;;;;13.43;4.20;;;;;;;;;;5058838;28;20412;-87
2022/04/11 06:04:06;;;;;;;6.50;3.77;;;;;;;;;;5057719;28;20414;-87
2022/04/11 06:06:32;;;;;;;4.07;3.67;;;;;;;;;;5041477;28;20419;-87
2022/04/11 06:09:00;;;;;;;5.27;3.53;;;;;;;;;;5072389;28;20454;-86
2022/04/11 06:11:26;;;;;;;6.00;3.80;;;;;;;;;;5065119;28;20465;-87
2022/04/11 06:13:54;;;;;;;9.73;3.87;;;;;;;;;;5043214;28;20418;-87
2022/04/11 06:16:20;;;;;;;6.33;3.60;;;;;;;;;;5060054;28;20539;-87
2022/04/11 06:18:46;;;;;;;8.53;3.33;;;;;;;;;;5059678;28;20428;-87
2022/04/11 06:21:13;;;;;;;6.10;3.50;;;;;;;;;;5068554;28;20410;-86
2022/04/11 06:23:39;;;;;;;7.30;3.83;;;;;;;;;;5066426;28;20952;-87
2022/04/11 06:26:05;;;;;;;6.03;3.50;;;;;;;;;;5060194;28;20406;-87
2022/04/11 06:28:31;;;;;;;6.20;3.77;;;;;;;;;;5059065;28;20451;-87
2022/04/11 06:30:57;;;;;;;6.40;3.80;;;;;;;;;;5058475;28;20398;-87
2022/04/11 06:33:23;;;;;;;4.50;3.63;;;;;;;;;;5059615;28;20408;-87
2022/04/11 06:35:49;;;;;;;4.90;3.70;;;;;;;;;;5059477;28;20495;-87
2022/04/11 06:38:15;;;;;;;5.50;3.80;;;;;;;;;;5058853;28;20429;-87
2022/04/11 06:40:41;;;;;;;7.33;3.60;;;;;;;;;;5058894;28;20437;-87
2022/04/11 06:43:07;;;;;;;5.57;3.60;;;;;;;;;;5059091;28;20502;-87
2022/04/11 06:45:33;;;;;;;6.37;3.83;;;;;;;;;;5059727;28;20401;-87
2022/04/11 06:47:59;;;;;;;4.20;3.63;;;;;;;;;;5060053;28;20417;-87
2022/04/11 06:50:25;;;;;;;3.83;3.43;;;;;;;;;;5058994;28;20451;-87
2022/04/11 06:52:51;;;;;;;4.87;3.93;;;;;;;;;;5059257;28;20442;-87
2022/04/11 06:55:17;;;;;;;4.87;3.43;;;;;;;;;;5059200;28;21047;-87
2022/04/11 06:57:43;;;;;;;6.03;3.20;;;;;;;;;;5041782;28;20476;-86
2022/04/11 07:00:09;;;;;;;5.43;3.60;;;;;;;;;;5058963;28;20417;-86
2022/04/11 07:02:37;;;;;;;4.00;3.07;;;;;;;;;;5058690;28;20821;-87
2022/04/11 07:05:03;;;;;;;4.60;3.10;;;;;;;;;;5058594;28;20429;-86
2022/04/11 07:07:29;;;;;;;5.23;3.33;;;;;;;;;;5041909;28;20516;-86
2022/04/11 07:09:56;;;;;;;4.43;3.50;;;;;;;;;;5061530;28;20475;-87
2022/04/11 07:12:22;;;;;;;5.63;3.47;;;;;;;;;;5037305;28;20406;-87
2022/04/11 07:14:48;;;;;;;4.40;3.00;;;;;;;;;;5037355;28;20406;-87
2022/04/11 07:17:15;;;;;;;3.80;3.23;;;;;;;;;;5020432;28;20803;-87
2022/04/11 07:19:41;;;;;;;4.77;3.10;;;;;;;;;;5036529;28;20410;-87
2022/04/11 07:22:07;;;;;;;4.20;3.33;;;;;;;;;;5039660;28;20454;-87
2022/04/11 07:24:33;;;;;;;3.63;3.33;;;;;;;;;;5041350;28;20402;-87
2022/04/11 07:26:59;;;;;;;5.17;3.53;;;;;;;;;;5040866;28;20456;-87
2022/04/11 07:29:26;;;;;;;5.43;3.30;;;;;;;;;;5040935;28;20946;-87
2022/04/11 07:31:52;;;;;;;4.60;3.57;;;;;;;;;;5041210;28;20414;-87
2022/04/11 07:34:18;;;;;;;4.10;3.20;;;;;;;;;;5040724;28;20417;-88
2022/04/11 07:36:44;;;;;;;6.60;3.60;;;;;;;;;;5041135;28;20424;-88
2022/04/11 07:39:10;;;;;;;8.80;3.80;;;;;;;;;;5040486;28;20418;-87
2022/04/11 07:41:36;;;;;;;6.27;4.10;;;;;;;;;;5022709;28;20418;-87
2022/04/11 07:44:03;;;;;;;4.07;3.47;;;;;;;;;;5040007;28;20412;-87
2022/04/11 07:46:31;;;;;;;5.60;3.47;;;;;;;;;;5022246;28;20418;-87
2022/04/11 07:48:58;;;;;;;6.20;3.70;;;;;;;;;;5039769;28;20457;-87
2022/04/11 07:51:26;;;;;;;5.10;3.90;;;;;;;;;;5040708;28;20485;-87
2022/04/11 07:53:52;;;;;;;7.67;4.10;;;;;;;;;;5041895;28;20402;-87
2022/04/11 07:56:18;;;;;;;4.47;3.10;;;;;;;;;;5029901;28;20418;-87
2022/04/11 07:58:44;;;;;;;13.13;5.07;;;;;;;;;;5047913;28;20467;-87
2022/04/11 08:01:16;;;;;;;4.30;3.40;;;;;;;;;;5021275;28;20426;-87
2022/04/11 08:03:43;;;;;;;3.83;3.33;;;;;;;;;;5037129;28;20442;-87
2022/04/11 08:06:09;;;;;;;5.40;3.03;;;;;;;;;;5043121;28;20473;-89
2022/04/11 08:08:35;;;;;;;4.00;3.17;;;;;;;;;;5046384;28;20430;-87
2022/04/11 08:11:01;;;;;;;5.83;3.20;;;;;;;;;;5042248;28;20462;-87
2022/04/11 08:13:27;;;;;;;6.97;3.50;;;;;;;;;;5023828;28;20411;-87
2022/04/11 08:15:53;;;;;;;9.67;3.40;;;;;;;;;;5037921;28;20744;-87
2022/04/11 08:18:19;;;;;;;6.07;3.07;;;;;;;;;;5024729;28;20441;-87
2022/04/11 08:20:45;;;;;;;3.83;3.00;;;;;;;;;;5049680;28;20418;-87
2022/04/11 08:23:11;;;;;;;4.00;3.00;;;;;;;;;;5049563;28;20456;-87
2022/04/11 08:25:37;;;;;;;6.23;4.17;;;;;;;;;;5043752;28;20411;-87
2022/04/11 08:28:04;;;;;;;6.17;3.80;;;;;;;;;;5041598;28;20411;-86
2022/04/11 08:30:30;;;;;;;6.27;3.03;;;;;;;;;;5044850;28;20409;-86
2022/04/11 08:32:56;;;;;;;6.73;4.00;;;;;;;;;;5043312;28;20933;-87
2022/04/11 08:35:23;;;;;;;5.40;3.00;;;;;;;;;;5041896;28;20498;-87
2022/04/11 08:37:49;;;;;;;3.70;3.30;;;;;;;;;;5039937;28;20426;-87
2022/04/11 08:40:18;;;;;;;4.33;2.87;;;;;;;;;;5040621;28;20399;-87
2022/04/11 08:42:45;;;;;;;7.77;3.40;;;;;;;;;;5039982;28;20447;-87
2022/04/11 08:45:16;;;;;;;3.80;3.27;;;;;;;;;;5005193;28;20472;-86
2022/04/11 08:47:43;;;;;;;4.63;3.73;;;;;;;;;;5036615;28;20430;-87
2022/04/11 08:50:10;;;;;;;3.63;3.20;;;;;;;;;;5021841;28;20540;-88
2022/04/11 08:52:36;;;;;;;3.07;2.63;;;;;;;;;;5039406;28;20402;-87
2022/04/11 08:55:03;;;;;;;3.60;2.80;;;;;;;;;;5039499;28;20414;-87
2022/04/11 08:57:29;;;;;;;5.53;3.10;;;;;;;;;;5039417;28;20886;-87
2022/04/11 08:59:55;;;;;;;3.83;2.83;;;;;;;;;;5037866;28;20469;-88
2022/04/11 09:02:31;;;;;;;5.33;2.90;;;;;;;;;;5038402;28;20453;-87
2022/04/11 09:04:57;;;;;;;5.80;3.43;;;;;;;;;;5037736;28;20463;-87
2022/04/11 09:07:23;;;;;;;4.43;3.30;;;;;;;;;;5038271;28;20517;-88
2022/04/11 09:09:50;;;;;;;3.00;2.67;;;;;;;;;;5039116;28;20399;-86
2022/04/11 09:12:17;;;;;;;5.07;2.70;;;;;;;;;;5039353;28;20937;-87
2022/04/11 09:14:43;;;;;;;4.43;2.83;;;;;;;;;;5038835;28;20882;-86
2022/04/11 09:17:10;;;;;;;5.70;3.30;;;;;;;;;;5038299;28;20498;-88
2022/04/11 09:19:39;;;;;;;4.00;2.70;;;;;;;;;;5019865;28;20923;-87
2022/04/11 09:22:06;;;;;;;4.10;2.70;;;;;;;;;;5032195;28;20429;-86
2022/04/11 09:24:35;;;;;;;3.20;2.40;;;;;;;;;;5040403;28;20238;-87
2022/04/11 09:27:02;;;;;;;3.63;2.83;;;;;;;;;;5026891;28;20430;-87
2022/04/11 09:29:31;;;;;;;3.43;2.63;;;;;;;;;;5038550;28;20414;-86
2022/04/11 09:32:04;;;;;;;3.30;2.40;;;;;;;;;;5038623;28;20403;-86
2022/04/11 09:34:30;;;;;;;3.87;2.83;;;;;;;;;;5038520;28;20488;-86
2022/04/11 09:36:57;;;;;;;4.43;3.10;;;;;;;;;;5040348;28;20407;-85
2022/04/11 09:39:24;;;;;;;3.73;2.73;;;;;;;;;;5041501;28;20430;-86
2022/04/11 09:41:51;;;;;;;3.90;3.17;;;;;;;;;;5040908;28;20883;-85
2022/04/11 09:44:26;;;;;;;3.07;2.77;;;;;;;;;;5040741;28;20434;-85
2022/04/11 09:46:53;;;;;;;3.53;2.37;;;;;;;;;;5040786;28;20402;-86
2022/04/11 09:49:19;;;;;;;3.37;2.60;;;;;;;;;;5040197;28;20838;-86
2022/04/11 09:52:01;;;;;;;2.90;2.33;;;;;;;;;;5035945;28;20407;-86
2022/04/11 09:54:27;;;;;;;3.90;2.80;;;;;;;;;;5021877;28;20421;-86
2022/04/11 09:56:54;;;;;;;4.43;2.93;;;;;;;;;;5039612;28;20399;-86
2022/04/11 09:59:28;;;;;;;5.40;2.77;;;;;;;;;;5039411;28;20727;-87
2022/04/11 10:01:56;;;;;;;3.27;2.57;;;;;;;;;;5038355;28;20485;-87
2022/04/11 10:04:22;;;;;;;3.90;2.70;;;;;;;;;;5039498;28;20448;-87
2022/04/11 10:06:49;;;;;;;3.43;3.10;;;;;;;;;;5038805;28;20398;-87
2022/04/11 10:09:23;;;;;;;3.10;2.80;;;;;;;;;;5020108;28;20433;-88
2022/04/11 10:12:01;;;;;;;7.40;2.97;;;;;;;;;;5008004;28;20933;-87
2022/04/11 10:14:28;;;;;;;4.73;3.13;;;;;;;;;;5039302;28;20767;-87
2022/04/11 10:17:03;;;;;;;3.90;2.60;;;;;;;;;;5027180;28;20407;-87
2022/04/11 10:19:33;;;;;;;3.90;2.70;;;;;;;;;;5005257;28;20430;-87
2022/04/11 10:22:03;;;;;;;3.43;2.07;;;;;;;;;;5021116;28;20446;-87
2022/04/11 10:24:33;;;;;;;2.43;1.90;;;;;;;;;;5030861;28;20414;-87
2022/04/11 10:27:16;;;;;;;2.97;2.37;;;;;;;;;;5037768;28;20422;-87
2022/04/11 10:29:43;;;;;;;5.30;2.40;;;;;;;;;;5023371;28;20514;-87
2022/04/11 10:32:10;;;;;;;2.50;1.83;;;;;;;;;;5045705;28;20407;-87
2022/04/11 10:34:55;;;;;;;4.87;3.10;;;;;;;;;;5049575;28;20472;-86
2022/04/11 10:37:50;;;;;;;2.90;2.23;;;;;;;;;;5037906;28;20426;-87
2022/04/11 10:40:16;;;;;;;3.40;2.63;;;;;;;;;;5037716;28;20456;-88
2022/04/11 10:43:09;;;;;;;4.30;2.80;;;;;;;;;;5038419;28;20446;-87
2022/04/11 10:45:44;;;;;;;3.10;2.50;;;;;;;;;;5005587;28;20430;-86
2022/04/11 10:48:14;;;;;;;3.30;2.30;;;;;;;;;;5037196;28;20414;-88
2022/04/11 10:50:41;;;;;;;4.00;2.60;;;;;;;;;;5028119;28;20410;-87
2022/04/11 10:53:09;;;;;;;3.30;2.53;;;;;;;;;;5039861;28;20422;-88
2022/04/11 10:55:35;;;;;;;3.90;2.30;;;;;;;;;;5037580;28;20403;-88
2022/04/11 10:58:21;;;;;;;3.80;3.03;;;;;;;;;;5094611;22;20560;-88
2022/04/11 11:00:51;;;;;;;3.73;2.50;;;;;;;;;;5043099;28;20398;-91
2022/04/11 11:03:18;;;;;;;3.50;2.47;;;;;;;;;;5063946;28;20867;-89
2022/04/11 11:05:51;;;;;;;4.38;2.17;;;;;;;;;;5026576;28;20416;-88
2022/04/11 11:08:32;;;;;;;3.70;2.50;;;;;;;;;;5092866;22;20230;-89
2022/04/11 11:11:25;;;;;;;5.40;3.33;;;;;;;;;;5039722;28;20410;-89
2022/04/11 11:13:52;;;;;;;3.07;2.37;;;;;;;;;;5027280;28;20436;-89
2022/04/11 11:16:18;;;;;;;4.40;2.20;;;;;;;;;;5017762;28;20419;-89
2022/04/11 11:18:51;;;;;;;3.70;2.43;;;;;;;;;;5044089;28;20446;-88
2022/04/11 11:21:20;;;;;;;3.17;1.80;;;;;;;;;;5014637;28;20419;-88
2022/04/11 11:24:12;;;;;;;3.00;2.30;;;;;;;;;;5039246;28;20450;-88
2022/04/11 11:26:48;;;;;;;4.15;2.20;;;;;;;;;;5005913;28;20431;-86
2022/04/11 11:29:17;;;;;;;3.70;2.73;;;;;;;;;;5017436;28;20192;-86
2022/04/11 11:31:43;;;;;;;3.93;2.57;;;;;;;;;;5036131;28;20406;-87
2022/04/11 11:34:11;;;;;;;3.90;2.37;;;;;;;;;;5012712;28;20416;-88
2022/04/11 11:36:40;;;;;;;3.70;2.47;;;;;;;;;;5007905;28;20905;-86
2022/04/11 11:39:12;;;;;;;3.17;1.90;;;;;;;;;;5027413;28;20506;-89
2022/04/11 11:41:42;;;;;;;3.57;2.60;;;;;;;;;;5013163;28;20518;-87
2022/04/11 11:44:09;;;;;;;3.40;2.20;;;;;;;;;;5037194;28;20425;-88
2022/04/11 11:46:53;;;;;;;3.13;2.10;;;;;;;;;;5028502;28;20398;-85
2022/04/11 11:49:20;;;;;;;4.07;2.20;;;;;;;;;;5028646;28;20437;-88
2022/04/11 11:51:46;;;;;;;3.90;2.40;;;;;;;;;;5012670;28;20410;-87
2022/04/11 11:54:13;;;;;;;6.50;2.10;;;;;;;;;;5017733;28;20424;-87
2022/04/11 11:56:48;;;;;;;3.50;2.22;;;;;;;;;;5025727;28;20480;-87
2022/04/11 11:59:15;;;;;;;3.00;2.30;;;;;;;;;;5025985;28;20199;-87
2022/04/11 12:04:18;;;;;;;2.17;1.93;;;;;;;;;;5033252;28;20415;-86
2022/04/11 12:04:32;;;;;;;2.20;1.80;;;;;;;;;;5020919;28;20822;-87
2022/04/11 12:06:58;;;;;;;3.57;2.70;;;;;;;;;;5020867;28;20450;-86
2022/04/11 12:09:24;;;;;;;3.77;2.37;;;;;;;;;;5027435;28;20457;-86
2022/04/11 12:11:57;;;;;;;3.70;2.03;;;;;;;;;;5038515;28;20419;-86
2022/04/11 12:14:23;;;;;;;4.10;2.00;;;;;;;;;;5000398;28;20501;-87
2022/04/11 12:16:57;;;;;;;4.73;2.23;;;;;;;;;;5028428;28;20415;-87
2022/04/11 12:19:37;;;;;;;3.30;1.93;;;;;;;;;;5040309;28;20430;-87
2022/04/11 12:22:13;;;;;;;6.73;2.00;;;;;;;;;;5032800;28;20805;-85
2022/04/11 12:24:40;;;;;;;2.30;1.90;;;;;;;;;;5030676;28;20411;-86
2022/04/11 12:27:10;;;;;;;3.00;2.07;;;;;;;;;;5022207;28;20470;-85
2022/04/11 12:29:40;;;;;;;3.20;2.07;;;;;;;;;;5041077;28;20396;-85
2022/04/11 12:32:11;;;;;;;3.17;1.90;;;;;;;;;;5033385;28;20412;-86
2022/04/11 12:34:39;;;;;;;2.80;2.03;;;;;;;;;;5014474;28;20411;-86
2022/04/11 12:37:06;;;;;;;2.47;1.90;;;;;;;;;;5023930;28;20418;-86
2022/04/11 12:39:32;;;;;;;5.03;2.10;;;;;;;;;;5041314;28;20495;-86
2022/04/11 12:41:58;;;;;;;2.93;2.20;;;;;;;;;;5014910;28;20494;-85
2022/04/11 12:44:34;;;;;;;3.53;2.23;;;;;;;;;;5041950;28;20421;-87
2022/04/11 12:47:00;;;;;;;4.10;2.03;;;;;;;;;;5044672;28;20419;-85
2022/04/11 12:49:43;;;;;;;3.40;2.60;;;;;;;;;;5050018;28;20419;-86
2022/04/11 12:52:09;;;;;;;3.20;2.20;;;;;;;;;;5035118;28;20449;-85
2022/04/11 12:54:41;;;;;;;8.87;2.17;;;;;;;;;;5033759;28;20416;-85
2022/04/11 12:57:12;;;;;;;4.37;2.80;;;;;;;;;;5035471;28;20471;-86
2022/04/11 12:59:42;;;;;;;3.53;2.60;;;;;;;;;;5042653;28;20399;-86
2022/04/11 13:02:18;;;;;;;4.50;3.30;;;;;;;;;;5037694;28;20458;-86
2022/04/11 13:04:50;;;;;;;3.00;2.23;;;;;;;;;;5040430;28;20407;-87
2022/04/11 13:07:16;;;;;;;6.10;2.63;;;;;;;;;;5027857;28;20415;-85
2022/04/11 13:09:45;;;;;;;2.73;2.07;;;;;;;;;;5017363;28;20494;-88
2022/04/11 13:12:12;;;;;;;7.10;2.43;;;;;;;;;;5005832;28;20448;-87
2022/04/11 13:14:39;;;;;;;3.57;2.27;;;;;;;;;;5006162;28;20408;-86
2022/04/11 13:19:50;;;;;;;3.03;2.10;;;;;;;;;;5035722;28;20402;-87
2022/04/11 13:22:16;;;;;;;3.57;1.87;;;;;;;;;;5014789;28;20547;-84
2022/04/11 13:24:50;;;;;;;2.23;1.70;;;;;;;;;;5029249;28;20486;-86
2022/04/11 13:27:21;;;;;;;3.37;1.93;;;;;;;;;;5039660;28;20401;-86
2022/04/11 13:29:48;;;;;;;2.87;2.20;;;;;;;;;;5029108;28;20413;-86
2022/04/11 13:32:17;;;;;;;2.63;2.03;;;;;;;;;;5033398;28;20760;-86
2022/04/11 13:34:43;;;;;;;5.47;2.00;;;;;;;;;;5011285;28;20975;-86
2022/04/11 13:37:09;;;;;;;6.17;3.43;;;;;;;;;;5038682;28;20437;-86
2022/04/11 13:39:36;;;;;;;6.00;2.37;;;;;;;;;;5040919;28;20921;-86
2022/04/11 13:42:02;;;;;;;5.00;1.77;;;;;;;;;;5017038;28;20784;-86
2022/04/11 13:44:28;;;;;;;2.50;1.77;;;;;;;;;;5032567;28;20481;-86
2022/04/11 13:46:54;;;;;;;3.20;2.07;;;;;;;;;;5026681;28;20418;-86
2022/04/11 13:49:40;;;;;;;2.37;1.80;;;;;;;;;;5021035;28;20435;-87
2022/04/11 13:52:17;;;;;;;3.10;1.90;;;;;;;;;;5013910;28;20422;-87
2022/04/11 13:54:44;;;;;;;6.23;4.03;;;;;;;;;;5012899;28;20894;-87
2022/04/11 13:57:10;;;;;;;4.57;2.30;;;;;;;;;;5005866;28;20453;-86
2022/04/11 13:59:36;;;;;;;5.40;2.60;;;;;;;;;;5019443;28;20446;-86
2022/04/11 14:02:02;;;;;;;3.63;2.30;;;;;;;;;;5000192;28;20439;-86
2022/04/11 14:04:28;;;;;;;4.00;2.73;;;;;;;;;;5014614;28;20456;-87
2022/04/11 14:06:54;;;;;;;4.13;2.30;;;;;;;;;;5027075;28;20431;-86
2022/04/11 14:09:30;;;;;;;4.20;2.27;;;;;;;;;;5032713;28;20440;-85
2022/04/11 14:12:01;;;;;;;2.87;1.80;;;;;;;;;;5003669;28;20415;-87
2022/04/11 14:14:34;;;;;;;5.67;2.40;;;;;;;;;;5033360;28;20755;-85
2022/04/11 14:17:02;;;;;;;2.63;1.77;;;;;;;;;;5008217;28;20407;-85
2022/04/11 14:19:28;;;;;;;5.73;2.20;;;;;;;;;;5038795;28;20423;-86
2022/04/11 14:21:54;;;;;;;4.53;2.10;;;;;;;;;;5022072;28;20807;-87
2022/04/11 14:24:21;;;;;;;7.20;2.20;;;;;;;;;;5032149;28;20399;-87
2022/04/11 14:26:48;;;;;;;2.63;1.70;;;;;;;;;;5019582;28;20407;-85
2022/04/11 14:29:14;;;;;;;5.13;2.30;;;;;;;;;;5046746;28;20429;-87
2022/04/11 14:31:40;;;;;;;3.90;2.00;;;;;;;;;;4995508;28;20997;-85
2022/04/11 14:34:06;;;;;;;3.83;2.07;;;;;;;;;;5034281;28;20411;-85
2022/04/11 14:36:48;;;;;;;;;;;;;;;;;;;;;
2022/04/11 14:39:32;;;;;;;3.63;1.80;;;;;;;;;;5039269;28;20473;-84
2022/04/11 14:42:01;;;;;;;5.10;1.67;;;;;;;;;;5023051;28;20405;-83
2022/04/11 14:44:27;;;;;;;4.77;3.73;;;;;;;;;;5009333;28;20423;-84
2022/04/11 14:47:06;;;;;;;;;;;;;;;;;;;;;
2022/04/11 14:49:34;;;;;;;4.50;2.27;;;;;;;;;;5007886;28;20522;-85